Emmanuel Tomasos — C6SS7 — position and weather

sailwx.info

Track history (hours):
 
Tides and Currents Weather Stations Pressure Air Temp Water Temp Dewpoint Dewpoint Depression Visibility Wind Speed Wind Dir Waves Ship Positions

Emmanuel Tomasos

Last reported at 2018-Apr-01 23:11 UTC. Time now 2018-Apr-24 10:32 UTC.
Position S 00°15' W 047°20'.
Warning: this ship's position is 22 days out of date.

Length 182 m; draft 8.4 m.

Type: Tanker. MMSI: 311459000.

Date/timePositionNaut miles runAvg speedWind from/ knotsBaromVisibWave heightAir tempDewpointWater temp
2018-Apr-01 23:11S 00°15' W 047°20'311.0
2018-Apr-01 22:53S 00°15' W 047°23'511.2
2018-Apr-01 22:25S 00°16' W 047°28'510.7
2018-Apr-01 22:00S 00°18' W 047°32'511.1
2018-Apr-01 21:30S 00°21' W 047°37'611.6
2018-Apr-01 21:00S 00°23' W 047°43'4 8.7
2018-Apr-01 20:31S 00°25' W 047°46'611.6
2018-Apr-01 20:00S 00°24' W 047°52'714.2
2018-Apr-01 19:30S 00°28' W 047°58'917.2
2018-Apr-01 19:00S 00°34' W 048°05'713.4
2018-Apr-01 18:28S 00°38' W 048°11'714.9
2018-Apr-01 18:01S 00°43' W 048°15'816.5
2018-Apr-01 17:30S 00°50' W 048°19'815.5
2018-Apr-01 17:00S 00°57' W 048°23'713.7
2018-Apr-01 16:30S 01°03' W 048°27'612.5
2018-Apr-01 16:00S 01°07' W 048°31'3 6.6
2018-Apr-01 15:30S 01°10' W 048°32'611.0
2018-Apr-01 14:59S 01°15' W 048°36'511.1
2018-Apr-01 14:30S 01°19' W 048°39'612.0
2018-Apr-01 13:59S 01°25' W 048°42'612.2
2018-Apr-01 13:30S 01°30' W 048°45'2 3.8
2018-Apr-01 13:00S 01°32' W 048°45'0 0.0
2018-Apr-01 12:09S 01°32' W 048°45'0 0.0
2018-Apr-01 12:00S 01°32' W 048°45'0 0.0
2018-Apr-01 11:30S 01°32' W 048°45'0 0.0
2018-Apr-01 11:00S 01°32' W 048°45'0 0.0
2018-Apr-01 10:30S 01°32' W 048°45'0 0.2
2018-Apr-01 09:58S 01°32' W 048°45'0 0.2
2018-Apr-01 09:24S 01°32' W 048°45'0 0.0
2018-Apr-01 08:57S 01°32' W 048°45'0 0.0
2018-Apr-01 08:27S 01°32' W 048°45'0 0.0
2018-Apr-01 07:57S 01°32' W 048°45'0 0.0
2018-Apr-01 07:27S 01°32' W 048°45'0 0.0
2018-Apr-01 07:00S 01°32' W 048°45'0 0.0
2018-Apr-01 06:30S 01°32' W 048°45'0 0.0
2018-Apr-01 06:00S 01°32' W 048°45'0 0.0
2018-Apr-01 05:30S 01°32' W 048°45'0 0.0
2018-Apr-01 04:57S 01°32' W 048°45'0 0.0
2018-Apr-01 04:30S 01°32' W 048°45'0 0.0
2018-Apr-01 04:00S 01°32' W 048°45'0 0.0
2018-Apr-01 03:18S 01°32' W 048°45'0 0.0
2018-Apr-01 03:00S 01°32' W 048°45'0 0.1
2018-Apr-01 02:30S 01°32' W 048°45'0 0.1
2018-Apr-01 02:00S 01°32' W 048°45'0 0.0
2018-Apr-01 01:30S 01°32' W 048°45'0 0.1
2018-Apr-01 01:00S 01°32' W 048°45'0 0.0
2018-Apr-01 00:30S 01°32' W 048°45'0 0.4
2018-Apr-01 00:00S 01°32' W 048°45'0 0.3
2018-Mar-31 23:30S 01°32' W 048°45'0 0.0
2018-Mar-31 23:00S 01°32' W 048°45'0 0.0
2018-Mar-31 22:30S 01°32' W 048°45'0 0.0
2018-Mar-31 22:00S 01°32' W 048°45'0 0.0
2018-Mar-31 21:30S 01°32' W 048°45'0 0.0
2018-Mar-31 21:00S 01°32' W 048°45'0 0.0
2018-Mar-31 20:30S 01°32' W 048°45'0 0.0
2018-Mar-31 20:00S 01°32' W 048°45'0 0.0
2018-Mar-31 19:30S 01°32' W 048°45'0 0.0
2018-Mar-31 18:57S 01°32' W 048°45'0 0.0
2018-Mar-31 18:27S 01°32' W 048°45'0 0.0
2018-Mar-31 18:00S 01°32' W 048°45'0 0.0
2018-Mar-31 17:30S 01°32' W 048°45'0 0.2
2018-Mar-31 17:00S 01°32' W 048°45'0 0.2
2018-Mar-31 16:27S 01°32' W 048°45'0 0.4
2018-Mar-31 16:00S 01°32' W 048°45'0 0.3
2018-Mar-31 15:30S 01°32' W 048°45'0 0.0
2018-Mar-31 15:00S 01°32' W 048°45'0 0.0
2018-Mar-31 13:36S 01°32' W 048°45'0 1.0
2018-Mar-31 13:30S 01°32' W 048°45'1 1.9
2018-Mar-31 12:44S 01°33' W 048°46'0 0.1
2018-Mar-31 12:23S 01°33' W 048°46'0 0.1
2018-Mar-31 10:32S 01°32' W 048°46'0 0.0
2018-Mar-31 10:25S 01°32' W 048°46'0 0.0
2018-Mar-31 09:57S 01°32' W 048°46'0 0.0
2018-Mar-31 09:28S 01°32' W 048°46'0 0.0
2018-Mar-31 09:00S 01°32' W 048°46'0 0.0
2018-Mar-31 08:24S 01°32' W 048°46'0 0.0
2018-Mar-31 07:56S 01°32' W 048°46'0 0.0
2018-Mar-31 07:27S 01°33' W 048°46'0 0.0
2018-Mar-31 06:56S 01°33' W 048°46'0 0.0
2018-Mar-31 06:26S 01°32' W 048°46'0 0.0
2018-Mar-31 05:57S 01°32' W 048°46'0 0.1
2018-Mar-31 05:20S 01°32' W 048°46'0 0.1
2018-Mar-31 04:56S 01°32' W 048°46'0 0.2
2018-Mar-31 04:20S 01°33' W 048°46'0 0.2
2018-Mar-31 03:56S 01°33' W 048°46'0 0.1
2018-Mar-31 03:29S 01°33' W 048°46'0 0.0
2018-Mar-31 02:59S 01°33' W 048°46'0 0.2
2018-Mar-31 02:30S 01°33' W 048°46'2 3.1
2018-Mar-31 02:00S 01°31' W 048°45'511.0
2018-Mar-31 01:31S 01°26' W 048°43'815.9
2018-Mar-31 01:00S 01°19' W 048°39'817.0
2018-Mar-31 00:31S 01°13' W 048°34'612.3
2018-Mar-31 00:00S 01°08' W 048°30'713.9
2018-Mar-30 23:30S 01°02' W 048°27'815.1
2018-Mar-30 23:00S 00°55' W 048°23'815.3
2018-Mar-30 22:30S 00°49' W 048°19'815.7
2018-Mar-30 22:01S 00°43' W 048°14'815.1
2018-Mar-30 21:30S 00°37' W 048°09'815.9
2018-Mar-30 21:01S 00°32' W 048°03'816.9
2018-Mar-30 20:31S 00°27' W 047°57'815.8
2018-Mar-30 20:01S 00°24' W 047°49'4 6.9
2018-Mar-30 19:28S 00°25' W 047°46'0 0.1
2018-Mar-30 18:58S 00°25' W 047°46'0 0.3
2018-Mar-30 18:28S 00°25' W 047°46'0 0.0
2018-Mar-30 17:58S 00°25' W 047°46'0 0.0
2018-Mar-30 15:43S 00°25' W 047°46'0 0.0
2018-Mar-30 15:28S 00°25' W 047°46'0 0.0
2018-Mar-30 14:58S 00°25' W 047°46'0 0.1
2018-Mar-30 14:28S 00°25' W 047°46'0 0.6
2018-Mar-30 13:58S 00°25' W 047°46'0 0.5
2018-Mar-30 13:28S 00°25' W 047°46'0 0.4
2018-Mar-30 12:58S 00°25' W 047°46'0 0.2
2018-Mar-30 12:28S 00°25' W 047°46'0 0.0
2018-Mar-30 11:58S 00°25' W 047°46'0 0.1
2018-Mar-30 11:28S 00°25' W 047°46'2 0.4
2018-Mar-30 06:14S 00°24' W 047°44'2 9.0
2018-Mar-30 06:01S 00°23' W 047°42'5 9.5
2018-Mar-30 05:30S 00°21' W 047°38'5 9.6
2018-Mar-30 05:01S 00°19' W 047°34'5 9.6
2018-Mar-30 04:30S 00°17' W 047°29'4 8.6
2018-Mar-30 04:01S 00°16' W 047°25'4 8.2
2018-Mar-30 03:31S 00°15' W 047°21'4 8.1
2018-Mar-30 03:00S 00°15' W 047°17'  
2018-Mar-23 23:21S 23°23' W 042°48'912.7
2018-Mar-23 22:40S 23°25' W 042°57'312.8
2018-Mar-23 22:26S 23°27' W 042°60'612.8
2018-Mar-23 22:00S 23°28' W 043°06'812.5
2018-Mar-23 21:22S 23°30' W 043°14'512.7
2018-Mar-23 21:00S 23°32' W 043°19'812.8
2018-Mar-23 20:25S 23°34' W 043°27'513.1
2018-Mar-23 20:00S 23°36' W 043°32'  
Track history (hours):
 
Tides and Currents Weather Stations Pressure Air Temp Water Temp Dewpoint Dewpoint Depression Visibility Wind Speed Wind Dir Waves Ship Positions

Emmanuel Tomasos

Last reported at 2018-Apr-01 23:11 UTC. Time now 2018-Apr-24 10:32 UTC.
Position S 00°15' W 047°20'.
Warning: this ship's position is 22 days out of date.

Length 182 m; draft 8.4 m.

Type: Tanker. MMSI: 311459000.

Date/timePositionNaut miles runAvg speedWind from/ knotsBaromVisibWave heightAir tempDewpointWater temp
2018-Apr-01 23:11S 00°15' W 047°20'311.0
2018-Apr-01 22:53S 00°15' W 047°23'511.2
2018-Apr-01 22:25S 00°16' W 047°28'510.7
2018-Apr-01 22:00S 00°18' W 047°32'511.1
2018-Apr-01 21:30S 00°21' W 047°37'611.6
2018-Apr-01 21:00S 00°23' W 047°43'4 8.7
2018-Apr-01 20:31S 00°25' W 047°46'611.6
2018-Apr-01 20:00S 00°24' W 047°52'714.2
2018-Apr-01 19:30S 00°28' W 047°58'917.2
2018-Apr-01 19:00S 00°34' W 048°05'713.4
2018-Apr-01 18:28S 00°38' W 048°11'714.9
2018-Apr-01 18:01S 00°43' W 048°15'816.5
2018-Apr-01 17:30S 00°50' W 048°19'815.5
2018-Apr-01 17:00S 00°57' W 048°23'713.7
2018-Apr-01 16:30S 01°03' W 048°27'612.5
2018-Apr-01 16:00S 01°07' W 048°31'3 6.6
2018-Apr-01 15:30S 01°10' W 048°32'611.0
2018-Apr-01 14:59S 01°15' W 048°36'511.1
2018-Apr-01 14:30S 01°19' W 048°39'612.0
2018-Apr-01 13:59S 01°25' W 048°42'612.2
2018-Apr-01 13:30S 01°30' W 048°45'2 3.8
2018-Apr-01 13:00S 01°32' W 048°45'0 0.0
2018-Apr-01 12:09S 01°32' W 048°45'0 0.0
2018-Apr-01 12:00S 01°32' W 048°45'0 0.0
2018-Apr-01 11:30S 01°32' W 048°45'0 0.0
2018-Apr-01 11:00S 01°32' W 048°45'0 0.0
2018-Apr-01 10:30S 01°32' W 048°45'0 0.2
2018-Apr-01 09:58S 01°32' W 048°45'0 0.2
2018-Apr-01 09:24S 01°32' W 048°45'0 0.0
2018-Apr-01 08:57S 01°32' W 048°45'0 0.0
2018-Apr-01 08:27S 01°32' W 048°45'0 0.0
2018-Apr-01 07:57S 01°32' W 048°45'0 0.0
2018-Apr-01 07:27S 01°32' W 048°45'0 0.0
2018-Apr-01 07:00S 01°32' W 048°45'0 0.0
2018-Apr-01 06:30S 01°32' W 048°45'0 0.0
2018-Apr-01 06:00S 01°32' W 048°45'0 0.0
2018-Apr-01 05:30S 01°32' W 048°45'0 0.0
2018-Apr-01 04:57S 01°32' W 048°45'0 0.0
2018-Apr-01 04:30S 01°32' W 048°45'0 0.0
2018-Apr-01 04:00S 01°32' W 048°45'0 0.0
2018-Apr-01 03:18S 01°32' W 048°45'0 0.0
2018-Apr-01 03:00S 01°32' W 048°45'0 0.1
2018-Apr-01 02:30S 01°32' W 048°45'0 0.1
2018-Apr-01 02:00S 01°32' W 048°45'0 0.0
2018-Apr-01 01:30S 01°32' W 048°45'0 0.1
2018-Apr-01 01:00S 01°32' W 048°45'0 0.0
2018-Apr-01 00:30S 01°32' W 048°45'0 0.4
2018-Apr-01 00:00S 01°32' W 048°45'0 0.3
2018-Mar-31 23:30S 01°32' W 048°45'0 0.0
2018-Mar-31 23:00S 01°32' W 048°45'0 0.0
2018-Mar-31 22:30S 01°32' W 048°45'0 0.0
2018-Mar-31 22:00S 01°32' W 048°45'0 0.0
2018-Mar-31 21:30S 01°32' W 048°45'0 0.0
2018-Mar-31 21:00S 01°32' W 048°45'0 0.0
2018-Mar-31 20:30S 01°32' W 048°45'0 0.0
2018-Mar-31 20:00S 01°32' W 048°45'0 0.0
2018-Mar-31 19:30S 01°32' W 048°45'0 0.0
2018-Mar-31 18:57S 01°32' W 048°45'0 0.0
2018-Mar-31 18:27S 01°32' W 048°45'0 0.0
2018-Mar-31 18:00S 01°32' W 048°45'0 0.0
2018-Mar-31 17:30S 01°32' W 048°45'0 0.2
2018-Mar-31 17:00S 01°32' W 048°45'0 0.2
2018-Mar-31 16:27S 01°32' W 048°45'0 0.4
2018-Mar-31 16:00S 01°32' W 048°45'0 0.3
2018-Mar-31 15:30S 01°32' W 048°45'0 0.0
2018-Mar-31 15:00S 01°32' W 048°45'0 0.0
2018-Mar-31 13:36S 01°32' W 048°45'0 1.0
2018-Mar-31 13:30S 01°32' W 048°45'1 1.9
2018-Mar-31 12:44S 01°33' W 048°46'0 0.1
2018-Mar-31 12:23S 01°33' W 048°46'0 0.1
2018-Mar-31 10:32S 01°32' W 048°46'0 0.0
2018-Mar-31 10:25S 01°32' W 048°46'0 0.0
2018-Mar-31 09:57S 01°32' W 048°46'0 0.0
2018-Mar-31 09:28S 01°32' W 048°46'0 0.0
2018-Mar-31 09:00S 01°32' W 048°46'0 0.0
2018-Mar-31 08:24S 01°32' W 048°46'0 0.0
2018-Mar-31 07:56S 01°32' W 048°46'0 0.0
2018-Mar-31 07:27S 01°33' W 048°46'0 0.0
2018-Mar-31 06:56S 01°33' W 048°46'0 0.0
2018-Mar-31 06:26S 01°32' W 048°46'0 0.0
2018-Mar-31 05:57S 01°32' W 048°46'0 0.1
2018-Mar-31 05:20S 01°32' W 048°46'0 0.1
2018-Mar-31 04:56S 01°32' W 048°46'0 0.2
2018-Mar-31 04:20S 01°33' W 048°46'0 0.2
2018-Mar-31 03:56S 01°33' W 048°46'0 0.1
2018-Mar-31 03:29S 01°33' W 048°46'0 0.0
2018-Mar-31 02:59S 01°33' W 048°46'0 0.2
2018-Mar-31 02:30S 01°33' W 048°46'2 3.1
2018-Mar-31 02:00S 01°31' W 048°45'511.0
2018-Mar-31 01:31S 01°26' W 048°43'815.9
2018-Mar-31 01:00S 01°19' W 048°39'817.0
2018-Mar-31 00:31S 01°13' W 048°34'612.3
2018-Mar-31 00:00S 01°08' W 048°30'713.9
2018-Mar-30 23:30S 01°02' W 048°27'815.1
2018-Mar-30 23:00S 00°55' W 048°23'815.3
2018-Mar-30 22:30S 00°49' W 048°19'815.7
2018-Mar-30 22:01S 00°43' W 048°14'815.1
2018-Mar-30 21:30S 00°37' W 048°09'815.9
2018-Mar-30 21:01S 00°32' W 048°03'816.9
2018-Mar-30 20:31S 00°27' W 047°57'815.8
2018-Mar-30 20:01S 00°24' W 047°49'4 6.9
2018-Mar-30 19:28S 00°25' W 047°46'0 0.1
2018-Mar-30 18:58S 00°25' W 047°46'0 0.3
2018-Mar-30 18:28S 00°25' W 047°46'0 0.0
2018-Mar-30 17:58S 00°25' W 047°46'0 0.0
2018-Mar-30 15:43S 00°25' W 047°46'0 0.0
2018-Mar-30 15:28S 00°25' W 047°46'0 0.0
2018-Mar-30 14:58S 00°25' W 047°46'0 0.1
2018-Mar-30 14:28S 00°25' W 047°46'0 0.6
2018-Mar-30 13:58S 00°25' W 047°46'0 0.5
2018-Mar-30 13:28S 00°25' W 047°46'0 0.4
2018-Mar-30 12:58S 00°25' W 047°46'0 0.2
2018-Mar-30 12:28S 00°25' W 047°46'0 0.0
2018-Mar-30 11:58S 00°25' W 047°46'0 0.1
2018-Mar-30 11:28S 00°25' W 047°46'2 0.4
2018-Mar-30 06:14S 00°24' W 047°44'2 9.0
2018-Mar-30 06:01S 00°23' W 047°42'5 9.5
2018-Mar-30 05:30S 00°21' W 047°38'5 9.6
2018-Mar-30 05:01S 00°19' W 047°34'5 9.6
2018-Mar-30 04:30S 00°17' W 047°29'4 8.6
2018-Mar-30 04:01S 00°16' W 047°25'4 8.2
2018-Mar-30 03:31S 00°15' W 047°21'4 8.1
2018-Mar-30 03:00S 00°15' W 047°17'  
2018-Mar-23 23:21S 23°23' W 042°48'912.7
2018-Mar-23 22:40S 23°25' W 042°57'312.8
2018-Mar-23 22:26S 23°27' W 042°60'612.8
2018-Mar-23 22:00S 23°28' W 043°06'812.5
2018-Mar-23 21:22S 23°30' W 043°14'512.7
2018-Mar-23 21:00S 23°32' W 043°19'812.8
2018-Mar-23 20:25S 23°34' W 043°27'513.1
2018-Mar-23 20:00S 23°36' W 043°32'  

Dump ship's entire track history